Time;durP1;ratioP1;P1;durP2;ratioP2;P2;SDS_P1;SDS_P2;PMS_P1;PMS_P2;Temp;Humidity;BMP_temperature;BMP_pressure;BME280_temperature;BME280_humidity;BME280_pressure;Samples;Min_cycle;Max_cycle;Signal;HPM_P1;HPM_P2
2023/08/29 00:02:00;;;;;;;14.00;12.80;;;;;;;25.03;87.02;99585.02;84029;286;136736;-69
2023/08/29 00:04:04;;;;;;;;;;;;;;;24.97;87.40;99587.48;84069;286;137346;-65
2023/08/29 00:06:06;;;;;;;14.00;13.00;;;;;;;24.91;88.05;99586.89;84094;284;22563;-67
2023/08/29 00:08:08;;;;;;;15.60;14.20;;;;;;;24.74;89.14;99578.17;83923;287;137103;-69
2023/08/29 00:10:10;;;;;;;15.10;13.90;;;;;;;24.70;89.97;99583.80;83962;286;22567;-65
2023/08/29 00:12:11;;;;;;;15.50;14.20;;;;;;;24.65;90.77;99583.56;83969;286;136877;-69
2023/08/29 00:14:13;;;;;;;14.60;13.40;;;;;;;24.61;91.44;99581.41;84107;287;22755;-68
2023/08/29 00:16:18;;;;;;;18.40;15.50;;;;;;;24.57;92.42;99579.67;83995;286;137092;-69
2023/08/29 00:18:19;;;;;;;14.30;13.20;;;;;;;24.55;92.58;99581.46;84056;287;22551;-70
2023/08/29 00:20:21;;;;;;;15.30;13.90;;;;;;;24.50;93.27;99576.83;83891;286;138065;-68
2023/08/29 00:22:23;;;;;;;15.60;14.30;;;;;;;24.46;93.76;99578.31;83927;288;22668;-68
2023/08/29 00:24:27;;;;;;;15.10;13.90;;;;;;;24.42;94.05;99578.80;83744;288;137664;-69
2023/08/29 00:26:29;;;;;;;15.90;14.60;;;;;;;24.38;94.60;99574.70;84061;288;23447;-69
2023/08/29 00:28:31;;;;;;;14.80;13.60;;;;;;;24.33;95.07;99572.98;84071;286;136969;-68
2023/08/29 00:30:37;;;;;;;17.10;15.60;;;;;;;24.30;95.16;99571.29;84246;287;22771;-62
2023/08/29 00:32:42;;;;;;;15.80;14.50;;;;;;;24.28;95.79;99570.94;84110;287;136968;-65
2023/08/29 00:34:44;;;;;;;16.10;14.80;;;;;;;24.25;96.00;99568.55;84043;288;25257;-62
2023/08/29 00:36:46;;;;;;;17.10;15.30;;;;;;;24.18;96.28;99559.29;83912;287;138602;-68
2023/08/29 00:38:48;;;;;;;16.10;14.80;;;;;;;24.24;96.43;99562.06;84023;288;22623;-67
2023/08/29 00:40:50;;;;;;;16.50;14.90;;;;;;;24.33;96.05;99562.59;83956;287;136801;-64
2023/08/29 00:42:52;;;;;;;16.00;14.50;;;;;;;24.26;96.42;99563.56;84052;287;25163;-70
2023/08/29 00:44:54;;;;;;;17.40;15.80;;;;;;;24.26;96.84;99563.07;83896;287;136855;-68
2023/08/29 00:46:58;;;;;;;15.70;14.30;;;;;;;24.30;96.55;99557.95;84004;287;24107;-69
2023/08/29 00:49:01;;;;;;;18.60;15.40;;;;;;;24.30;96.98;99562.80;83957;287;137214;-68
2023/08/29 00:51:03;;;;;;;15.60;14.40;;;;;;;24.30;96.75;99561.16;83964;287;25154;-66
2023/08/29 00:53:08;;;;;;;14.90;13.70;;;;;;;24.27;96.81;99562.63;83851;287;136951;-67
2023/08/29 00:55:10;;;;;;;16.90;15.30;;;;;;;24.23;97.33;99564.32;83939;287;24226;-65
2023/08/29 00:57:12;;;;;;;16.60;15.10;;;;;;;24.18;97.57;99566.77;83898;287;136855;-67
2023/08/29 00:59:14;;;;;;;16.60;14.90;;;;;;;24.12;98.06;99566.15;84025;287;22585;-65
2023/08/29 01:01:17;;;;;;;15.90;14.50;;;;;;;24.06;98.58;99566.66;83770;287;138392;-68
2023/08/29 01:03:19;;;;;;;15.40;14.10;;;;;;;24.01;99.43;99567.35;84041;286;24657;-64
2023/08/29 01:05:21;;;;;;;16.70;15.00;;;;;;;24.00;99.43;99573.63;83936;287;137110;-67
2023/08/29 01:07:23;;;;;;;16.30;14.80;;;;;;;23.99;99.82;99574.68;84013;287;23621;-67
2023/08/29 01:09:25;;;;;;;16.70;15.10;;;;;;;23.95;100.00;99576.96;83867;288;137205;-69
2023/08/29 01:11:39;;;;;;;15.80;14.50;;;;;;;24.00;100.00;99575.10;84153;286;22569;-69
2023/08/29 01:14:05;;;;;;;16.70;15.30;;;;;;;24.01;100.00;99576.94;83916;286;137063;-68
2023/08/29 01:16:10;;;;;;;17.90;15.50;;;;;;;23.84;100.00;99573.88;83836;287;137279;-68
2023/08/29 01:18:14;;;;;;;17.40;15.70;;;;;;;23.82;100.00;99583.15;84039;287;22549;-68
2023/08/29 01:20:17;;;;;;;16.10;14.70;;;;;;;23.71;100.00;99581.06;83987;287;137301;-67
2023/08/29 01:22:38;;;;;;;19.10;17.30;;;;;;;23.66;100.00;99580.64;84115;287;25139;-67
2023/08/29 01:24:53;;;;;;;17.00;15.60;;;;;;;23.61;100.00;99583.38;83988;264;138322;-69
2023/08/29 01:27:00;;;;;;;17.40;16.00;;;;;;;23.59;100.00;99584.59;83899;287;25318;-68
2023/08/29 01:29:02;;;;;;;16.90;15.50;;;;;;;23.56;100.00;99585.63;83836;287;137708;-68
2023/08/29 01:31:05;;;;;;;17.00;15.80;;;;;;;23.54;100.00;99589.95;83971;287;25228;-70
2023/08/29 01:33:10;;;;;;;17.80;16.40;;;;;;;23.53;100.00;99588.42;83793;287;139139;-69
2023/08/29 01:35:13;;;;;;;17.00;15.60;;;;;;;23.57;100.00;99586.26;84087;280;25195;-70
2023/08/29 01:37:15;;;;;;;16.10;14.80;;;;;;;23.61;100.00;99586.63;84023;286;137450;-70
2023/08/29 01:39:17;;;;;;;17.30;15.90;;;;;;;23.62;100.00;99586.41;84017;288;22586;-69
2023/08/29 01:41:19;;;;;;;16.40;15.10;;;;;;;23.63;100.00;99586.11;84067;287;137133;-69
2023/08/29 01:43:21;;;;;;;16.40;15.20;;;;;;;23.66;100.00;99586.52;83962;287;22742;-69
2023/08/29 01:45:24;;;;;;;16.10;14.80;;;;;;;23.62;100.00;99591.73;83998;286;137109;-65
2023/08/29 01:47:26;;;;;;;15.30;14.20;;;;;;;23.59;100.00;99591.99;84142;286;25138;-68
2023/08/29 01:49:32;;;;;;;18.60;16.50;;;;;;;23.54;100.00;99594.63;83955;286;137984;-69
2023/08/29 01:51:34;;;;;;;15.60;14.30;;;;;;;23.49;100.00;99588.64;84094;287;26935;-69
2023/08/29 01:53:38;;;;;;;17.60;16.00;;;;;;;23.45;100.00;99587.83;83949;287;138576;-69
2023/08/29 01:55:44;;;;;;;16.20;14.90;;;;;;;23.43;100.00;99583.07;84102;286;22657;-68
2023/08/29 01:57:49;;;;;;;17.10;15.70;;;;;;;23.41;100.00;99579.52;83828;287;137498;-70
2023/08/29 01:59:52;;;;;;;15.80;14.40;;;;;;;23.37;100.00;99579.06;84079;287;24709;-68
2023/08/29 02:01:54;;;;;;;18.10;16.60;;;;;;;23.31;100.00;99579.52;84040;287;137073;-68
2023/08/29 02:03:56;;;;;;;16.90;15.50;;;;;;;23.25;100.00;99576.59;84056;286;25138;-67
2023/08/29 02:05:59;;;;;;;17.90;16.20;;;;;;;23.22;100.00;99576.37;84078;286;136885;-66
2023/08/29 02:08:00;;;;;;;17.30;15.80;;;;;;;23.22;100.00;99576.76;83890;289;22686;-68
2023/08/29 02:10:05;;;;;;;18.20;16.50;;;;;;;23.20;100.00;99577.81;84078;286;22592;-66
2023/08/29 02:12:07;;;;;;;18.70;16.50;;;;;;;23.21;100.00;99581.82;83887;288;137757;-68
2023/08/29 02:14:12;;;;;;;;;;;;;;;23.23;100.00;99577.88;83999;288;22663;-66
2023/08/29 02:16:13;;;;;;;17.60;16.20;;;;;;;23.22;100.00;99583.34;83805;287;123803;-69
2023/08/29 02:18:16;;;;;;;18.40;16.60;;;;;;;23.18;100.00;99583.39;83935;286;24143;-71
2023/08/29 02:20:17;;;;;;;17.20;15.90;;;;;;;23.15;100.00;99584.08;83967;286;137742;-68
2023/08/29 02:22:22;;;;;;;18.20;16.70;;;;;;;23.13;100.00;99587.63;84090;286;25457;-68
2023/08/29 02:24:24;;;;;;;18.10;16.30;;;;;;;23.11;100.00;99587.92;84050;286;137572;-67
2023/08/29 02:26:25;;;;;;;17.40;15.70;;;;;;;23.08;100.00;99587.90;83959;287;22572;-69
2023/08/29 02:28:28;;;;;;;18.60;17.10;;;;;;;23.05;100.00;99587.27;83889;286;137538;-67
2023/08/29 02:30:29;;;;;;;17.60;16.10;;;;;;;23.08;100.00;99589.92;83969;286;24064;-67
2023/08/29 02:32:34;;;;;;;18.60;16.50;;;;;;;23.05;100.00;99591.31;84007;286;137507;-68
2023/08/29 02:34:36;;;;;;;17.70;16.30;;;;;;;23.05;100.00;99595.82;84006;288;25178;-68
2023/08/29 02:36:41;;;;;;;19.30;17.20;;;;;;;23.11;100.00;99598.30;84164;286;137591;-69
2023/08/29 02:38:44;;;;;;;18.70;16.80;;;;;;;23.16;100.00;99597.17;83974;286;22555;-72
2023/08/29 02:40:46;;;;;;;18.30;16.10;;;;;;;23.18;100.00;99596.38;83833;286;137309;-69
2023/08/29 02:42:48;;;;;;;18.60;16.90;;;;;;;23.17;100.00;99594.48;83838;286;24821;-71
2023/08/29 02:44:50;;;;;;;18.00;16.40;;;;;;;23.18;100.00;99593.11;83874;286;137545;-70
2023/08/29 02:46:52;;;;;;;19.40;17.50;;;;;;;23.14;100.00;99589.73;83875;288;24119;-70
2023/08/29 02:48:54;;;;;;;18.70;17.10;;;;;;;23.13;100.00;99586.05;83814;287;138020;-69
2023/08/29 02:50:55;;;;;;;17.80;16.30;;;;;;;23.17;100.00;99584.16;83930;286;24931;-70
2023/08/29 02:52:59;;;;;;;16.60;15.30;;;;;;;23.20;100.00;99586.98;83816;286;137621;-68
2023/08/29 02:55:01;;;;;;;18.10;16.60;;;;;;;23.23;100.00;99584.91;84043;287;22582;-68
2023/08/29 02:57:03;;;;;;;18.30;16.60;;;;;;;23.25;100.00;99589.01;83929;286;137566;-67
2023/08/29 02:59:05;;;;;;;19.00;17.00;;;;;;;23.24;100.00;99591.67;83976;286;22579;-67
2023/08/29 03:01:11;;;;;;;17.80;16.30;;;;;;;23.23;100.00;99599.48;83879;286;137143;-70
2023/08/29 03:03:13;;;;;;;18.20;16.60;;;;;;;23.19;100.00;99599.15;83964;288;22576;-69
2023/08/29 03:05:16;;;;;;;18.90;16.80;;;;;;;23.19;100.00;99601.42;83955;286;138881;-68
2023/08/29 03:07:18;;;;;;;18.70;16.90;;;;;;;23.25;100.00;99603.30;83888;284;24042;-67
2023/08/29 03:09:20;;;;;;;19.40;17.80;;;;;;;23.33;100.00;99600.54;83827;286;137132;-69
2023/08/29 03:11:23;;;;;;;16.10;14.50;;;;;;;23.35;100.00;99603.83;84186;287;22548;-71
2023/08/29 03:13:25;;;;;;;20.30;18.50;;;;;;;23.33;100.00;99605.66;84078;287;137271;-68
2023/08/29 03:15:32;;;;;;;20.10;18.20;;;;;;;23.34;100.00;99609.40;84083;288;22647;-69
2023/08/29 03:17:34;;;;;;;22.30;20.40;;;;;;;23.41;100.00;99611.49;84033;286;137610;-69
2023/08/29 03:19:36;;;;;;;18.90;17.20;;;;;;;23.44;100.00;99612.48;84006;286;23881;-69
2023/08/29 03:21:38;;;;;;;22.40;20.40;;;;;;;23.50;100.00;99612.34;84113;287;137067;-68
2023/08/29 03:23:41;;;;;;;20.50;18.40;;;;;;;23.59;100.00;99611.86;83927;287;25206;-67
2023/08/29 03:25:43;;;;;;;19.70;18.00;;;;;;;23.63;100.00;99610.65;83931;287;138753;-68
2023/08/29 03:27:45;;;;;;;19.20;17.40;;;;;;;23.61;100.00;99610.58;83999;286;24375;-70
2023/08/29 03:29:47;;;;;;;21.20;19.10;;;;;;;23.58;100.00;99610.66;83919;286;137480;-70
2023/08/29 03:31:49;;;;;;;21.40;18.90;;;;;;;23.53;100.00;99610.73;84003;287;22577;-70
2023/08/29 03:33:51;;;;;;;20.80;18.60;;;;;;;23.50;100.00;99616.54;83747;286;137269;-71
2023/08/29 03:35:59;;;;;;;31.80;22.70;;;;;;;23.47;100.00;99612.32;83934;276;25193;-73
2023/08/29 03:38:02;;;;;;;19.50;17.40;;;;;;;23.49;100.00;99620.73;84121;288;136534;-70
2023/08/29 03:40:07;;;;;;;20.60;18.90;;;;;;;23.48;100.00;99616.50;83884;288;137769;-70
2023/08/29 03:42:09;;;;;;;18.80;17.20;;;;;;;23.51;100.00;99620.04;83924;289;24730;-69
2023/08/29 03:44:12;;;;;;;19.10;17.40;;;;;;;23.69;100.00;99628.21;83853;286;137487;-68
2023/08/29 03:46:14;;;;;;;20.00;18.50;;;;;;;23.85;100.00;99634.05;84004;287;24178;-70
2023/08/29 03:48:15;;;;;;;19.90;18.20;;;;;;;23.97;100.00;99632.80;83766;288;137306;-70
2023/08/29 03:50:29;;;;;;;21.70;18.60;;;;;;;24.07;100.00;99633.55;83933;286;25151;-70
2023/08/29 03:52:31;;;;;;;20.50;18.50;;;;;;;24.28;100.00;99635.10;84041;287;137072;-69
2023/08/29 03:54:36;;;;;;;19.40;17.60;;;;;;;24.44;100.00;99634.67;84215;286;22608;-65
2023/08/29 03:56:39;;;;;;;20.80;19.00;;;;;;;24.66;100.00;99634.38;84064;287;137491;-69
2023/08/29 03:58:41;;;;;;;20.40;18.30;;;;;;;24.86;100.00;99643.94;83989;287;25144;-68
2023/08/29 04:00:44;;;;;;;20.20;18.50;;;;;;;25.02;100.00;99645.02;83796;287;136803;-70
2023/08/29 04:02:46;;;;;;;20.70;18.90;;;;;;;25.17;100.00;99640.45;84441;287;22552;-69
2023/08/29 04:04:51;;;;;;;21.30;19.20;;;;;;;25.36;100.00;99638.27;83993;287;137739;-74
2023/08/29 04:06:54;;;;;;;19.70;17.80;;;;;;;25.57;99.95;99634.02;84231;286;22551;-70
2023/08/29 04:08:55;;;;;;;21.50;19.10;;;;;;;25.77;98.42;99633.70;83974;287;137738;-67
2023/08/29 04:10:58;;;;;;;19.40;17.40;;;;;;;25.93;97.15;99631.35;83836;277;23378;-73
2023/08/29 04:13:00;;;;;;;20.40;18.30;;;;;;;26.13;95.93;99634.23;83787;287;137293;-72
2023/08/29 04:15:02;;;;;;;19.60;17.70;;;;;;;26.41;94.43;99633.23;83989;286;22568;-71
2023/08/29 04:17:04;;;;;;;32.00;19.40;;;;;;;26.70;92.63;99636.25;83992;288;137002;-71
2023/08/29 04:19:06;;;;;;;24.20;18.50;;;;;;;26.98;91.00;99638.29;84023;288;25192;-70
2023/08/29 04:21:08;;;;;;;21.40;16.80;;;;;;;27.31;88.64;99638.11;83948;286;138252;-68
2023/08/29 04:23:10;;;;;;;23.30;17.80;;;;;;;27.68;86.14;99637.32;84090;286;22555;-67
2023/08/29 04:25:12;;;;;;;18.50;16.80;;;;;;;28.06;84.11;99640.34;84112;286;136688;-69
2023/08/29 04:27:14;;;;;;;17.80;16.20;;;;;;;28.50;82.04;99643.24;84040;286;23643;-69
2023/08/29 04:29:16;;;;;;;19.10;17.30;;;;;;;29.00;79.06;99646.08;83809;264;137243;-74
2023/08/29 04:31:19;;;;;;;18.80;17.20;;;;;;;29.46;76.75;99649.58;83969;286;24099;-69
2023/08/29 04:33:21;;;;;;;19.20;17.20;;;;;;;29.90;74.58;99647.22;84004;288;137370;-70
2023/08/29 04:35:27;;;;;;;18.40;16.30;;;;;;;30.35;71.86;99647.38;84094;286;22582;-72
2023/08/29 04:37:28;;;;;;;18.70;17.00;;;;;;;30.71;69.64;99647.40;84000;286;137304;-74
2023/08/29 04:39:30;;;;;;;17.40;15.80;;;;;;;31.05;67.76;99650.52;84136;286;24099;-68
2023/08/29 04:41:34;;;;;;;17.70;16.30;;;;;;;31.36;67.06;99647.99;84027;287;136685;-71
2023/08/29 04:43:44;;;;;;;17.70;15.90;;;;;;;31.72;65.40;99651.08;84112;287;22626;-70
2023/08/29 04:45:46;;;;;;;16.90;15.20;;;;;;;31.97;62.75;99647.09;84011;288;136425;-70
2023/08/29 04:47:48;;;;;;;17.30;15.80;;;;;;;32.13;61.81;99645.84;84118;286;24104;-70
2023/08/29 04:49:50;;;;;;;15.90;14.50;;;;;;;32.23;61.05;99640.45;84293;287;136262;-70
2023/08/29 04:51:52;;;;;;;16.20;14.70;;;;;;;32.28;61.09;99639.19;84118;287;24069;-71
2023/08/29 04:53:54;;;;;;;16.00;14.50;;;;;;;32.39;60.24;99637.49;84061;288;137216;-68
2023/08/29 04:56:03;;;;;;;16.10;14.50;;;;;;;32.48;60.16;99633.16;83877;289;23118;-68
2023/08/29 04:58:08;;;;;;;15.80;14.50;;;;;;;32.63;59.34;99627.06;84172;287;23381;-72
2023/08/29 05:00:12;;;;;;;15.00;13.70;;;;;;;32.75;58.16;99626.04;83794;287;136407;-70
2023/08/29 05:02:17;;;;;;;16.00;14.50;;;;;;;32.79;57.97;99630.46;84184;281;25213;-70
2023/08/29 05:04:18;;;;;;;15.50;14.10;;;;;;;32.86;57.95;99630.86;83883;289;136841;-72
2023/08/29 05:06:20;;;;;;;14.90;13.40;;;;;;;32.95;57.48;99637.72;83973;275;22570;-70
2023/08/29 05:08:22;;;;;;;13.30;12.20;;;;;;;33.07;57.14;99633.11;83896;287;136672;-69
2023/08/29 05:10:24;;;;;;;14.10;12.90;;;;;;;33.21;56.65;99634.27;84374;288;22585;-73
2023/08/29 05:12:26;;;;;;;11.30;10.40;;;;;;;33.35;56.06;99633.64;83996;286;136488;-70
2023/08/29 05:14:29;;;;;;;13.70;12.30;;;;;;;33.47;55.25;99633.14;84329;287;25188;-67
2023/08/29 05:16:32;;;;;;;13.90;12.70;;;;;;;33.64;54.82;99631.47;84106;287;137243;-69
2023/08/29 05:18:34;;;;;;;14.20;12.70;;;;;;;33.81;54.67;99629.10;84251;286;24056;-71
2023/08/29 05:20:37;;;;;;;13.20;12.00;;;;;;;33.89;54.10;99634.78;84182;285;135964;-69
2023/08/29 05:22:39;;;;;;;14.80;13.50;;;;;;;33.90;53.51;99634.20;84186;286;22613;-68
2023/08/29 05:24:41;;;;;;;14.40;13.10;;;;;;;33.76;53.70;99637.91;84279;287;137454;-70
2023/08/29 05:26:44;;;;;;;14.60;13.20;;;;;;;33.68;54.29;99636.79;84014;287;24103;-70
2023/08/29 05:28:46;;;;;;;12.70;11.80;;;;;;;33.71;54.34;99636.86;84033;286;136399;-68
2023/08/29 05:30:48;;;;;;;13.10;11.80;;;;;;;33.80;53.84;99638.94;84150;288;24148;-66
2023/08/29 05:32:50;;;;;;;14.50;13.00;;;;;;;33.84;53.58;99639.34;84150;286;136480;-70
2023/08/29 05:34:52;;;;;;;11.90;10.80;;;;;;;33.80;53.87;99645.11;84252;287;24635;-69
2023/08/29 05:36:56;;;;;;;12.50;11.10;;;;;;;33.84;53.62;99638.23;84107;287;136806;-69
2023/08/29 05:38:57;;;;;;;15.20;11.30;;;;;;;33.97;53.31;99639.30;84389;286;22589;-71
2023/08/29 05:41:03;;;;;;;16.40;12.40;;;;;;;34.07;53.06;99634.13;84516;288;137616;-71
2023/08/29 05:43:04;;;;;;;11.90;10.90;;;;;;;34.24;52.68;99632.91;85568;289;22577;-71
2023/08/29 05:45:06;;;;;;;11.50;10.70;;;;;;;34.34;51.95;99637.45;84213;288;136760;-70
2023/08/29 05:47:08;;;;;;;11.80;10.80;;;;;;;34.39;51.62;99635.08;84223;286;21541;-69
2023/08/29 05:49:10;;;;;;;13.10;11.90;;;;;;;34.48;51.17;99637.23;84115;286;136323;-72
2023/08/29 05:51:12;;;;;;;13.40;12.00;;;;;;;34.59;51.04;99638.54;84242;286;22583;-69
2023/08/29 05:53:14;;;;;;;13.10;11.00;;;;;;;34.69;50.72;99636.14;84285;287;137292;-73
2023/08/29 05:55:17;;;;;;;13.20;11.70;;;;;;;34.78;50.63;99633.45;84343;286;25295;-70
2023/08/29 05:57:18;;;;;;;12.10;11.00;;;;;;;34.86;50.41;99634.14;84215;286;136322;-72
2023/08/29 05:59:20;;;;;;;12.60;11.40;;;;;;;34.98;49.99;99631.25;84221;286;24102;-69
2023/08/29 06:01:22;;;;;;;11.50;10.40;;;;;;;34.99;49.60;99628.66;84216;286;138559;-71
2023/08/29 06:03:25;;;;;;;11.50;10.50;;;;;;;34.99;49.08;99626.83;84014;286;22569;-74
2023/08/29 06:05:27;;;;;;;11.60;10.70;;;;;;;35.00;49.11;99626.06;83927;286;136598;-72
2023/08/29 06:07:29;;;;;;;11.40;10.60;;;;;;;34.99;48.78;99626.02;84167;286;24113;-71
2023/08/29 06:09:32;;;;;;;11.10;10.30;;;;;;;34.89;49.29;99623.83;83949;287;138126;-71
2023/08/29 06:11:35;;;;;;;11.90;10.90;;;;;;;34.92;49.32;99626.89;83983;288;22618;-69
2023/08/29 06:13:36;;;;;;;12.10;11.00;;;;;;;34.99;49.60;99627.31;84071;287;136776;-74
2023/08/29 06:15:38;;;;;;;13.60;12.20;;;;;;;35.11;49.02;99632.15;84496;286;22561;-70
2023/08/29 06:17:40;;;;;;;12.40;11.40;;;;;;;35.19;49.28;99635.23;84163;287;137529;-77
2023/08/29 06:19:42;;;;;;;13.50;12.20;;;;;;;35.22;49.22;99634.73;84192;286;22551;-71
2023/08/29 06:21:43;;;;;;;12.80;11.60;;;;;;;35.32;48.41;99637.42;84146;288;137175;-70
2023/08/29 06:23:45;;;;;;;12.50;10.60;;;;;;;35.33;48.66;99638.56;84268;287;22608;-74
2023/08/29 06:25:49;;;;;;;11.80;10.70;;;;;;;35.35;48.42;99633.82;84278;286;136444;-70
2023/08/29 06:27:50;;;;;;;12.50;10.80;;;;;;;35.32;48.42;99636.55;84377;286;22567;-72
2023/08/29 06:29:52;;;;;;;16.30;10.30;;;;;;;35.32;48.76;99636.77;83828;288;137498;-69
2023/08/29 06:31:56;;;;;;;;;;;;;;;35.36;49.04;99639.23;84198;286;25432;-79
2023/08/29 06:33:58;;;;;;;11.70;10.60;;;;;;;35.40;48.68;99639.11;84186;286;122747;-73
2023/08/29 06:35:59;;;;;;;12.40;10.20;;;;;;;35.41;48.68;99643.41;84034;289;24232;-72
2023/08/29 06:38:01;;;;;;;9.70;8.80;;;;;;;35.46;48.17;99646.41;84159;288;137139;-71
2023/08/29 06:40:06;;;;;;;10.80;9.90;;;;;;;35.58;48.07;99644.61;84165;286;137264;-75
2023/08/29 06:42:08;;;;;;;9.80;8.90;;;;;;;35.68;47.76;99638.35;84274;282;24254;-71
2023/08/29 06:44:10;;;;;;;12.50;8.40;;;;;;;35.77;48.10;99636.91;84128;286;136537;-71
2023/08/29 06:46:13;;;;;;;9.80;8.90;;;;;;;35.89;47.45;99636.48;84256;277;25111;-71
2023/08/29 06:48:15;;;;;;;10.50;8.60;;;;;;;35.95;46.73;99634.73;84253;286;137161;-72
2023/08/29 06:50:17;;;;;;;8.80;7.70;;;;;;;35.99;46.36;99632.33;84215;288;22567;-72
2023/08/29 06:52:19;;;;;;;10.30;9.20;;;;;;;36.04;46.10;99633.03;84114;286;135243;-72
2023/08/29 06:54:20;;;;;;;11.40;8.90;;;;;;;36.06;46.12;99631.23;84399;282;22548;-71
2023/08/29 06:56:23;;;;;;;9.70;8.60;;;;;;;35.98;45.93;99631.61;84329;282;136698;-76
2023/08/29 06:58:25;;;;;;;9.90;8.70;;;;;;;35.81;46.11;99629.90;83957;284;605242;-75
2023/08/29 07:00:28;;;;;;;10.40;9.30;;;;;;;35.74;46.00;99628.69;84208;283;137172;-73
2023/08/29 07:02:29;;;;;;;9.60;8.50;;;;;;;35.62;46.23;99634.92;84379;283;22578;-73
2023/08/29 07:04:31;;;;;;;9.50;8.70;;;;;;;35.38;46.69;99627.61;84268;283;136115;-76
2023/08/29 07:06:33;;;;;;;15.70;9.10;;;;;;;35.23;46.89;99628.11;84110;283;24071;-78
2023/08/29 07:08:37;;;;;;;11.70;9.70;;;;;;;35.19;47.43;99623.98;84265;284;136725;-73
2023/08/29 07:10:39;;;;;;;10.20;9.10;;;;;;;35.16;48.34;99624.58;84477;281;22579;-77
2023/08/29 07:12:42;;;;;;;10.90;9.20;;;;;;;35.02;49.05;99624.59;84733;282;137515;-86
2023/08/29 07:14:43;;;;;;;9.80;8.90;;;;;;;34.79;49.89;99624.54;85166;282;24179;-86
2023/08/29 07:16:45;;;;;;;14.90;9.40;;;;;;;34.59;50.08;99629.14;84872;283;137410;-74
2023/08/29 07:19:07;;;;;;;9.80;8.90;;;;;;;34.35;50.65;99626.24;84494;283;22564;-69
2023/08/29 07:21:09;;;;;;;12.50;9.10;;;;;;;34.16;51.09;99627.67;84138;282;136320;-73
2023/08/29 07:23:11;;;;;;;9.70;8.60;;;;;;;34.01;51.95;99623.48;84550;282;22549;-76
2023/08/29 07:25:13;;;;;;;12.10;8.90;;;;;;;33.88;52.63;99620.63;84592;283;136132;-74
2023/08/29 07:27:15;;;;;;;10.80;8.70;;;;;;;33.73;52.74;99624.67;84541;283;22549;-76
2023/08/29 07:29:17;;;;;;;14.70;9.50;;;;;;;33.54;52.88;99625.95;84248;282;136198;-71
2023/08/29 07:31:18;;;;;;;8.70;8.00;;;;;;;33.36;52.89;99631.38;84450;283;22580;-75
2023/08/29 07:33:20;;;;;;;9.10;7.50;;;;;;;33.20;53.00;99633.13;84230;283;136218;-73
2023/08/29 07:35:22;;;;;;;9.10;8.10;;;;;;;33.11;52.34;99628.11;84430;283;22653;-75
2023/08/29 07:37:24;;;;;;;9.90;8.70;;;;;;;33.08;52.04;99630.16;84389;282;136656;-78
2023/08/29 07:39:26;;;;;;;8.90;8.20;;;;;;;33.12;52.55;99630.58;84173;283;22636;-75
2023/08/29 07:41:27;;;;;;;10.00;9.20;;;;;;;33.15;52.63;99637.15;84271;283;135855;-73
2023/08/29 07:43:29;;;;;;;9.20;7.80;;;;;;;33.08;52.09;99637.67;84362;282;25268;-76
2023/08/29 07:45:31;;;;;;;9.10;8.30;;;;;;;33.01;52.22;99637.23;84297;282;135916;-69
2023/08/29 07:47:33;;;;;;;14.50;9.20;;;;;;;32.97;52.75;99633.02;84252;282;22961;-70
2023/08/29 07:49:36;;;;;;;10.80;9.10;;;;;;;32.91;52.23;99628.73;84066;283;136508;-72
2023/08/29 07:51:37;;;;;;;10.60;9.30;;;;;;;32.90;52.41;99631.93;84238;282;22561;-73
2023/08/29 07:53:39;;;;;;;11.10;9.40;;;;;;;32.94;52.26;99629.33;84102;272;136349;-74
2023/08/29 07:55:41;;;;;;;9.20;8.30;;;;;;;32.96;52.34;99630.33;84267;282;22566;-71
2023/08/29 07:57:43;;;;;;;10.40;9.50;;;;;;;32.98;52.72;99629.34;84078;282;138222;-70
2023/08/29 07:59:45;;;;;;;9.80;9.00;;;;;;;32.98;53.90;99631.80;84140;282;22553;-72
2023/08/29 08:01:48;;;;;;;10.40;9.40;;;;;;;32.96;54.19;99631.35;84105;272;136518;-72
2023/08/29 08:03:50;;;;;;;11.20;10.10;;;;;;;32.89;54.39;99624.72;84306;283;22561;-72
2023/08/29 08:05:52;;;;;;;12.30;9.40;;;;;;;32.83;54.32;99625.98;84102;282;136629;-73
2023/08/29 08:07:55;;;;;;;9.40;8.80;;;;;;;32.81;53.81;99627.84;84183;282;24101;-71
2023/08/29 08:09:59;;;;;;;9.10;8.30;;;;;;;32.88;52.80;99634.39;84109;282;136195;-73
2023/08/29 08:12:02;;;;;;;8.60;7.90;;;;;;;32.96;52.56;99634.44;84163;282;22548;-68
2023/08/29 08:14:04;;;;;;;9.30;8.40;;;;;;;33.03;50.95;99632.33;84145;282;22550;-70
2023/08/29 08:16:06;;;;;;;9.10;7.70;;;;;;;33.07;50.02;99633.69;83993;279;136601;-70
2023/08/29 08:18:08;;;;;;;9.70;8.80;;;;;;;33.13;49.91;99634.66;84178;282;22645;-71
2023/08/29 08:20:12;;;;;;;8.00;7.30;;;;;;;33.19;49.48;99631.85;84228;281;137098;-72
2023/08/29 08:22:13;;;;;;;9.60;8.80;;;;;;;33.19;49.05;99628.09;84236;282;22554;-71
2023/08/29 08:24:16;;;;;;;10.00;9.10;;;;;;;33.16;48.84;99629.90;84097;283;136312;-71
2023/08/29 08:26:18;;;;;;;8.40;7.60;;;;;;;33.21;48.61;99628.98;84255;282;22557;-70
2023/08/29 08:28:19;;;;;;;9.50;8.70;;;;;;;33.28;48.74;99632.69;84111;282;136283;-71
2023/08/29 08:30:22;;;;;;;9.10;8.30;;;;;;;33.32;48.28;99630.30;84178;281;24184;-71
2023/08/29 08:32:24;;;;;;;12.30;8.80;;;;;;;33.35;48.18;99630.73;84208;281;137506;-70
2023/08/29 08:34:25;;;;;;;12.50;8.40;;;;;;;33.42;46.95;99630.33;84346;282;24114;-70
2023/08/29 08:36:28;;;;;;;10.20;8.30;;;;;;;33.48;46.19;99628.42;84184;282;136343;-70
2023/08/29 08:38:30;;;;;;;10.70;9.20;;;;;;;33.52;47.20;99624.16;84240;282;22557;-72
2023/08/29 08:40:34;;;;;;;8.80;8.20;;;;;;;33.52;47.31;99622.13;84064;282;136962;-72
2023/08/29 08:42:41;;;;;;;9.20;8.00;;;;;;;33.54;47.11;99624.38;84341;282;22567;-70
2023/08/29 08:44:44;;;;;;;8.30;6.90;;;;;;;33.55;46.87;99622.60;84235;282;136059;-70
2023/08/29 08:46:47;;;;;;;6.80;6.30;;;;;;;33.54;44.71;99626.51;84153;283;22561;-73
2023/08/29 08:48:49;;;;;;;7.60;6.90;;;;;;;33.54;43.76;99623.41;84190;283;136339;-70
2023/08/29 08:50:51;;;;;;;10.40;6.90;;;;;;;33.60;43.78;99620.15;84373;283;25370;-72
2023/08/29 08:52:55;;;;;;;7.60;7.10;;;;;;;33.63;43.91;99619.06;84145;282;136720;-72
2023/08/29 08:54:57;;;;;;;7.90;7.30;;;;;;;33.59;44.37;99616.34;84149;282;24208;-73
2023/08/29 08:56:59;;;;;;;7.70;7.10;;;;;;;33.63;44.59;99615.73;84162;282;136545;-71
2023/08/29 08:59:01;;;;;;;10.50;7.40;;;;;;;33.67;44.28;99618.77;84200;282;22562;-73
2023/08/29 09:01:03;;;;;;;8.40;7.00;;;;;;;33.68;44.54;99620.84;84132;282;135989;-70
2023/08/29 09:03:05;;;;;;;8.00;6.90;;;;;;;33.67;42.97;99616.00;84223;282;22547;-73
2023/08/29 09:05:07;;;;;;;7.10;6.60;;;;;;;33.66;42.21;99605.48;84165;282;137408;-71
2023/08/29 09:07:12;;;;;;;7.20;6.10;;;;;;;33.70;42.18;99607.05;84281;282;22597;-70
2023/08/29 09:09:17;;;;;;;6.90;6.30;;;;;;;33.78;41.91;99605.02;83999;282;136311;-68
2023/08/29 09:11:18;;;;;;;8.70;7.40;;;;;;;33.77;42.43;99606.91;84175;282;22590;-68
2023/08/29 09:13:22;;;;;;;7.40;6.90;;;;;;;33.72;43.03;99609.87;84005;282;136320;-71
2023/08/29 09:15:27;;;;;;;11.80;7.20;;;;;;;33.80;42.73;99603.33;84222;284;22558;-71
2023/08/29 09:17:31;;;;;;;9.30;6.90;;;;;;;33.87;42.07;99601.63;84207;283;136537;-69
2023/08/29 09:19:34;;;;;;;7.90;5.90;;;;;;;33.92;41.82;99603.11;84257;282;22557;-70
2023/08/29 09:21:36;;;;;;;6.30;5.80;;;;;;;34.02;40.98;99606.23;84194;253;136216;-69
2023/08/29 09:23:39;;;;;;;7.10;6.50;;;;;;;34.13;40.69;99608.81;84292;282;25196;-69
2023/08/29 09:25:41;;;;;;;6.90;6.30;;;;;;;34.20;40.61;99609.05;84210;282;136312;-71
2023/08/29 09:27:49;;;;;;;9.30;6.40;;;;;;;34.22;39.78;99603.09;84173;283;22558;-68
2023/08/29 09:29:54;;;;;;;7.10;5.70;;;;;;;34.29;38.69;99614.21;84216;283;136061;-71
2023/08/29 09:31:59;;;;;;;6.60;5.70;;;;;;;34.33;38.18;99607.10;84153;284;25183;-75